CheckWX is a tool to help pilots better visualize weather data.  It is not intended as a substitute for an official pre-flight weather briefing.

21:38:03 UTC

GCTS TAF
Tenerife South Airport
Tenerife Island, Spain
TAF GCTS 202000Z 2021/2121 05013KT 9999 FEW030 TX22/2114Z TN16/2106Z BECMG 2109/2111 09025KT

Mar-20@
21:00 UTC

Mar-20 @ 21:00 UTC

Mar-21@
09:00 UTC

Mar-21 @ 09:00 UTC

TAF GCTS 202000Z 2021/2121 05013KT 9999 FEW030 TX22/2114Z TN16/2106Z
Wind
  • 050° at 13 KTS
Cloud Levels
  • Few at 3,000' AGL

Mar-21@
09:00 UTC

Mar-21 @ 09:00 UTC

Mar-21@
21:00 UTC

Mar-21 @ 21:00 UTC

BECMG 2109/2111 09025KT

Becoming

Becoming Conditions expected by Thu, Mar 21, 2019 @ 11:00 UTC

Wind
  • 090° at 25 KTS
Cloud Levels
  • Few at 3,000' AGL